createdAt,value
2018-11-06T00:03:04.063Z,74.7
2018-11-06T00:08:04.070Z,74.4
2018-11-06T00:12:27.897Z,74.4
2018-11-06T00:17:28.214Z,74.3
2018-11-06T00:22:27.683Z,74.2
2018-11-06T00:27:27.291Z,74.2
2018-11-06T00:32:28.559Z,74.3
2018-11-06T00:37:27.817Z,74.0
2018-11-06T00:42:28.129Z,74.5
2018-11-06T00:47:28.302Z,74.5
2018-11-06T00:52:28.723Z,74.1
2018-11-06T00:57:28.588Z,74.0
2018-11-06T01:02:27.902Z,74.2
2018-11-06T01:07:29.111Z,74.0
2018-11-06T01:12:27.788Z,74.0
2018-11-06T01:17:28.103Z,74.0
2018-11-06T01:22:27.949Z,73.8
2018-11-06T01:27:28.238Z,73.8
2018-11-06T01:32:28.927Z,73.9
2018-11-06T01:37:28.560Z,73.6
2018-11-06T01:42:28.657Z,73.7
2018-11-06T01:47:28.424Z,73.4
2018-11-06T01:52:28.817Z,73.3
2018-11-06T01:57:28.543Z,73.4
2018-11-06T02:02:27.878Z,73.5
2018-11-06T02:07:28.487Z,73.3
2018-11-06T02:12:27.782Z,73.2
2018-11-06T02:17:28.365Z,73.3
2018-11-06T02:22:28.929Z,73.3
2018-11-06T02:27:27.805Z,73.3
2018-11-06T02:32:29.082Z,73.3
2018-11-06T02:37:27.818Z,73.5
2018-11-06T02:42:27.881Z,73.4
2018-11-06T02:47:28.835Z,73.4
2018-11-06T02:52:27.725Z,73.4
2018-11-06T02:57:28.375Z,73.3
2018-11-06T03:02:28.065Z,73.3
2018-11-06T03:07:28.865Z,73.3
2018-11-06T03:12:29.539Z,73.1
2018-11-06T03:17:27.691Z,73.1
2018-11-06T03:22:28.766Z,73.4
2018-11-06T03:27:27.935Z,73.6
2018-11-06T03:32:28.239Z,73.5
2018-11-06T03:37:28.898Z,73.6
2018-11-06T03:42:28.681Z,73.7
2018-11-06T03:47:28.248Z,73.6
2018-11-06T03:52:28.327Z,73.4
2018-11-06T03:57:28.264Z,73.6
2018-11-06T04:02:28.801Z,73.5
2018-11-06T04:07:28.732Z,73.6
2018-11-06T04:12:28.335Z,73.5
2018-11-06T04:17:29.244Z,72.9
2018-11-06T04:22:28.356Z,72.9
2018-11-06T04:27:27.911Z,73.2
2018-11-06T04:32:29.109Z,72.9
2018-11-06T04:37:28.411Z,72.9
2018-11-06T04:42:28.301Z,73.0
2018-11-06T04:47:29.402Z,73.0
2018-11-06T04:52:28.540Z,73.1
2018-11-06T04:57:28.249Z,73.0
2018-11-06T05:02:28.789Z,72.8
2018-11-06T05:07:29.392Z,72.7
2018-11-06T05:12:29.059Z,73.1
2018-11-06T05:17:28.883Z,73.0
2018-11-06T05:22:29.615Z,73.0
2018-11-06T05:27:28.049Z,73.0
2018-11-06T05:32:28.061Z,72.9
2018-11-06T05:37:28.344Z,72.8
2018-11-06T05:42:29.560Z,73.0
2018-11-06T05:47:28.738Z,73.2
2018-11-06T05:52:28.398Z,73.4
2018-11-06T05:57:28.615Z,73.3
2018-11-06T06:02:28.721Z,73.4
2018-11-06T06:07:28.988Z,73.3
2018-11-06T06:12:28.198Z,73.3
2018-11-06T06:17:28.559Z,73.3
2018-11-06T06:22:29.061Z,73.1
2018-11-06T06:27:28.558Z,73.2
2018-11-06T06:32:29.377Z,73.2
2018-11-06T06:37:29.315Z,72.8
2018-11-06T06:42:28.317Z,72.9
2018-11-06T06:47:29.168Z,73.0
2018-11-06T06:52:29.400Z,73.1
2018-11-06T06:57:28.996Z,73.1
2018-11-06T07:02:28.321Z,72.8
2018-11-06T07:07:28.861Z,72.7
2018-11-06T07:12:29.344Z,72.2
2018-11-06T07:17:30.175Z,71.9
2018-11-06T07:22:29.412Z,71.6
2018-11-06T07:27:29.209Z,71.8
2018-11-06T07:32:28.842Z,71.5
2018-11-06T07:37:29.560Z,71.5
2018-11-06T07:42:29.632Z,71.8
2018-11-06T07:47:29.764Z,71.4
2018-11-06T07:52:28.342Z,71.5
2018-11-06T07:57:28.412Z,71.5
2018-11-06T08:02:28.994Z,71.7
2018-11-06T08:07:29.117Z,72.2
2018-11-06T08:12:29.255Z,72.2
2018-11-06T08:17:28.361Z,71.8
2018-11-06T08:22:28.234Z,71.7
2018-11-06T08:27:29.436Z,71.7
2018-11-06T08:32:30.103Z,71.8
2018-11-06T08:37:28.860Z,71.8
2018-11-06T08:42:29.341Z,71.8
2018-11-06T08:47:29.259Z,71.7
2018-11-06T08:52:29.031Z,71.6
2018-11-06T08:57:28.555Z,71.6
2018-11-06T09:02:29.039Z,71.6
2018-11-06T09:07:29.081Z,71.5
2018-11-06T09:12:28.862Z,72.2
2018-11-06T09:17:28.817Z,72.2
2018-11-06T09:22:29.418Z,72.6
2018-11-06T09:27:28.437Z,72.7
2018-11-06T09:32:28.918Z,72.8
2018-11-06T09:37:28.515Z,73.0
2018-11-06T09:42:29.012Z,73.0
2018-11-06T09:47:28.878Z,73.0
2018-11-06T09:52:29.358Z,73.3
2018-11-06T09:57:28.560Z,73.3
2018-11-06T10:02:28.798Z,73.3
2018-11-06T10:07:29.867Z,73.5
2018-11-06T10:12:28.812Z,73.7
2018-11-06T10:17:28.646Z,73.7
2018-11-06T10:22:28.699Z,74.0
2018-11-06T10:27:28.838Z,74.0
2018-11-06T10:32:29.073Z,74.0
2018-11-06T10:37:29.015Z,74.1
2018-11-06T10:42:28.694Z,74.0
2018-11-06T10:47:29.419Z,74.3
2018-11-06T10:52:28.553Z,74.3
2018-11-06T10:57:29.121Z,74.4
2018-11-06T11:02:28.697Z,74.3
2018-11-06T11:07:28.984Z,74.5
2018-11-06T11:12:29.142Z,74.3
2018-11-06T11:17:29.357Z,75.0
2018-11-06T11:22:28.636Z,74.9
2018-11-06T11:27:28.992Z,74.8
2018-11-06T11:32:29.346Z,75.0
2018-11-06T11:37:28.886Z,75.0
2018-11-06T11:42:28.765Z,75.1
2018-11-06T11:47:28.738Z,75.2
2018-11-06T11:52:28.471Z,75.5
2018-11-06T11:57:28.438Z,75.6
2018-11-06T12:02:28.953Z,75.3
2018-11-06T12:07:28.883Z,75.4
2018-11-06T12:12:28.531Z,75.8
2018-11-06T12:17:30.232Z,76.2
2018-11-06T12:22:28.348Z,76.2
2018-11-06T12:27:28.234Z,76.1
2018-11-06T12:32:29.119Z,76.5
2018-11-06T12:37:28.183Z,76.5
2018-11-06T12:42:28.930Z,76.8
2018-11-06T12:47:29.291Z,76.8
2018-11-06T12:52:28.490Z,77.0
2018-11-06T12:57:28.383Z,77.2
2018-11-06T13:02:29.171Z,77.4
2018-11-06T13:07:29.333Z,77.4
2018-11-06T13:12:29.259Z,77.4
2018-11-06T13:17:29.494Z,77.6
2018-11-06T13:22:28.515Z,77.5
2018-11-06T13:27:28.173Z,77.7
2018-11-06T13:32:29.494Z,77.8
2018-11-06T13:37:29.056Z,78.2
2018-11-06T13:42:29.324Z,78.2
2018-11-06T13:47:28.212Z,78.1
2018-11-06T13:52:28.853Z,78.4
2018-11-06T13:57:28.161Z,78.5
2018-11-06T14:02:29.445Z,78.5
2018-11-06T14:07:29.304Z,78.8
2018-11-06T14:12:28.337Z,79.1
2018-11-06T14:17:28.628Z,79.0
2018-11-06T14:22:29.719Z,79.2
2018-11-06T14:27:28.869Z,79.3
2018-11-06T14:32:29.434Z,79.4
2018-11-06T14:37:28.968Z,79.7
2018-11-06T14:42:29.180Z,80.1
2018-11-06T14:47:29.124Z,80.4
2018-11-06T14:52:28.162Z,80.9
2018-11-06T14:57:29.234Z,81.2
2018-11-06T15:02:28.710Z,81.3
2018-11-06T15:07:29.785Z,81.3
2018-11-06T15:12:28.634Z,81.5
2018-11-06T15:17:28.434Z,81.6
2018-11-06T15:22:28.536Z,81.6
2018-11-06T15:27:29.486Z,81.8
2018-11-06T15:32:28.257Z,81.8
2018-11-06T15:37:28.924Z,81.9
2018-11-06T15:42:28.449Z,82.0
2018-11-06T15:47:28.485Z,81.9
2018-11-06T15:52:28.560Z,80.0
2018-11-06T15:57:27.836Z,81.0
2018-11-06T16:02:29.201Z,81.0
2018-11-06T16:07:29.502Z,81.4
2018-11-06T16:12:29.121Z,81.5
2018-11-06T16:17:28.560Z,81.4
2018-11-06T16:22:28.628Z,81.3
2018-11-06T16:27:29.316Z,81.5
2018-11-06T16:32:28.883Z,81.5
2018-11-06T16:37:29.455Z,81.4
2018-11-06T16:42:29.838Z,81.2
2018-11-06T16:47:28.677Z,81.0
2018-11-06T16:52:28.788Z,81.0
2018-11-06T16:57:27.964Z,81.0
2018-11-06T17:02:28.290Z,80.9
2018-11-06T17:07:28.746Z,80.9
2018-11-06T17:12:28.121Z,80.8
2018-11-06T17:17:29.169Z,81.0
2018-11-06T17:22:28.452Z,81.0
2018-11-06T17:27:29.750Z,80.9
2018-11-06T17:32:28.709Z,80.5
2018-11-06T17:37:28.100Z,80.5
2018-11-06T17:42:28.365Z,80.4
2018-11-06T17:47:28.650Z,80.2
2018-11-06T17:52:28.223Z,80.3
2018-11-06T17:57:28.511Z,80.4
2018-11-06T18:02:27.757Z,80.3
2018-11-06T18:07:28.807Z,79.8
2018-11-06T18:12:28.634Z,79.8
2018-11-06T18:17:28.627Z,80.0
2018-11-06T18:22:29.608Z,80.0
2018-11-06T18:27:28.010Z,79.9
2018-11-06T18:32:27.720Z,79.5
2018-11-06T18:37:27.736Z,79.5
2018-11-06T18:42:27.625Z,79.4
2018-11-06T18:47:29.160Z,79.5
2018-11-06T18:52:28.565Z,79.6
2018-11-06T18:57:27.628Z,79.4
2018-11-06T19:02:28.493Z,79.4
2018-11-06T19:07:28.294Z,79.4
2018-11-06T19:12:29.067Z,79.4
2018-11-06T19:17:28.660Z,79.5
2018-11-06T19:22:28.433Z,79.5
2018-11-06T19:27:28.229Z,79.5
2018-11-06T19:32:28.233Z,79.4
2018-11-06T19:37:29.226Z,79.5
2018-11-06T19:42:28.489Z,79.6
2018-11-06T19:47:28.517Z,79.6
2018-11-06T19:52:27.699Z,79.5
2018-11-06T19:57:28.929Z,79.5
2018-11-06T20:02:28.188Z,79.5
2018-11-06T20:07:27.895Z,79.5
2018-11-06T20:12:28.816Z,79.4
2018-11-06T20:17:28.353Z,79.4
2018-11-06T20:22:29.039Z,79.3
2018-11-06T20:27:28.165Z,79.2
2018-11-06T20:32:28.033Z,79.3
2018-11-06T20:37:28.803Z,79.3
2018-11-06T20:42:28.195Z,79.2
2018-11-06T20:47:28.017Z,79.3
2018-11-06T20:52:28.661Z,79.3
2018-11-06T20:57:28.139Z,79.2
2018-11-06T21:02:28.305Z,79.1
2018-11-06T21:07:28.819Z,79.1
2018-11-06T21:12:28.274Z,79.2
2018-11-06T21:17:28.775Z,79.1
2018-11-06T21:22:28.082Z,79.1
2018-11-06T21:27:28.804Z,78.9
2018-11-06T21:32:29.070Z,79.1
2018-11-06T21:37:28.660Z,79.0
2018-11-06T21:42:27.850Z,79.1
2018-11-06T21:47:28.838Z,79.1
2018-11-06T21:52:28.526Z,79.1
2018-11-06T21:57:28.614Z,79.1
2018-11-06T22:02:28.169Z,78.9
2018-11-06T22:07:28.810Z,78.9
2018-11-06T22:12:29.329Z,78.9
2018-11-06T22:17:28.551Z,79.0
2018-11-06T22:22:29.128Z,79.1
2018-11-06T22:27:30.177Z,79.2
2018-11-06T22:32:28.620Z,79.0
2018-11-06T22:37:29.757Z,79.0
2018-11-06T22:42:30.560Z,79.0
2018-11-06T22:47:27.993Z,78.9
2018-11-06T22:52:28.933Z,78.7
2018-11-06T22:57:28.266Z,78.7
2018-11-06T23:02:28.791Z,78.7
2018-11-06T23:07:28.364Z,78.8
2018-11-06T23:12:28.939Z,78.8
2018-11-06T23:23:06.326Z,78.1
2018-11-06T23:28:05.536Z,78.4
2018-11-06T23:33:04.600Z,78.4
2018-11-06T23:38:04.686Z,78.5
2018-11-06T23:43:03.867Z,78.5
2018-11-06T23:48:04.276Z,78.6
2018-11-06T23:53:04.375Z,78.6
2018-11-06T23:58:04.491Z,78.4
